Abingdon, Illinois
Current Conditions -  °F | °C
As of 10:15 PM on Saturday 22 Nov 2014 (Local Time) from KGBG Reporting Station
Overcast Overcast  
Wind Chill: 50°   Ceiling: 1100
Heat Index: 50°   Visibility: 10mi
Dew Point: 47°   Wind: 14mph
Humidity: 90%   Direction: 180°S
Pressure: 29.79"   Gusts: 18mph
Location:  40.8°N, 90.4°W
Report Text: KGBG 230415Z AUTO 18012G16KT 10SM OVC011 10/08 A2979 RMK AO2 T01000084
Loading
Personal Weather Stations






























Interactive Weather Map New forecast layout! Learn more

10-Day Weather Forecast

Advertisements
Track Severe Weather on mobile